Time;durP1;ratioP1;P1;durP2;ratioP2;P2;SDS_P1;SDS_P2;PMS_P1;PMS_P2;Temp;Humidity;BMP_temperature;BMP_pressure;BME280_temperature;BME280_humidity;BME280_pressure;Samples;Min_cycle;Max_cycle;Signal;HPM_P1;HPM_P2
2022/12/25 00:03:19;;;;;;;6.90;4.20;;;22.70;56.20;;;;;;212292;1307;25635;-53
2022/12/25 00:08:24;;;;;;;8.30;4.90;;;22.60;56.30;;;;;;212150;1313;22510;-58
2022/12/25 00:13:28;;;;;;;6.40;4.30;;;22.50;56.50;;;;;;211906;1305;457040;-57
2022/12/25 00:18:32;;;;;;;6.10;4.10;;;22.50;57.40;;;;;;212357;1296;23960;-58
2022/12/25 00:23:37;;;;;;;6.70;3.90;;;22.40;56.70;;;;;;212150;1312;22493;-56
2022/12/25 00:28:42;;;;;;;6.60;4.40;;;22.40;56.80;;;;;;212125;1314;25310;-57
2022/12/25 00:33:47;;;;;;;6.20;4.20;;;22.30;57.00;;;;;;212221;1302;24035;-55
2022/12/25 00:38:51;;;;;;;7.10;4.50;;;22.20;57.20;;;;;;212258;1313;22558;-56
2022/12/25 00:43:55;;;;;;;5.20;3.80;;;22.20;57.10;;;;;;212072;1307;22484;-56
2022/12/25 00:49:00;;;;;;;5.30;3.60;;;22.10;57.40;;;;;;212102;1308;25352;-54
2022/12/25 00:54:04;;;;;;;5.20;3.70;;;22.10;57.50;;;;;;212222;1298;22709;-58
2022/12/25 00:59:08;;;;;;;5.60;3.60;;;22.00;57.50;;;;;;211920;1297;24372;-57
2022/12/25 01:04:12;;;;;;;5.40;3.50;;;21.90;57.50;;;;;;212240;1296;22517;-57
2022/12/25 01:14:38;;;;;;;6.00;3.70;;;21.90;57.60;;;;;;212173;1306;22638;-57
2022/12/25 01:19:42;;;;;;;5.90;3.70;;;21.80;57.70;;;;;;212029;1309;22551;-58
2022/12/25 01:24:47;;;;;;;6.80;4.10;;;21.80;57.70;;;;;;212060;1309;22596;-58
2022/12/25 01:29:50;;;;;;;5.80;3.40;;;21.80;57.80;;;;;;212219;1303;25124;-57
2022/12/25 01:34:54;;;;;;;4.80;3.30;;;21.70;57.90;;;;;;211989;1306;22474;-56
2022/12/25 01:39:59;;;;;;;5.00;3.80;;;21.60;57.80;;;;;;212095;1306;22474;-58
2022/12/25 01:45:33;;;;;;;4.90;3.20;;;21.60;58.00;;;;;;212142;1293;22501;-57
2022/12/25 01:50:40;;;;;;;4.70;3.30;;;21.50;57.90;;;;;;211993;1316;22647;-56
2022/12/25 01:55:47;;;;;;;5.80;3.60;;;21.50;58.00;;;;;;212026;1303;25306;-57
2022/12/25 02:00:52;;;;;;;5.80;3.50;;;21.50;58.20;;;;;;212009;1308;22598;-59
2022/12/25 02:05:57;;;;;;;3.80;2.40;;;21.40;58.10;;;;;;212200;1297;25263;-57
2022/12/25 02:11:01;;;;;;;4.90;3.10;;;21.40;58.10;;;;;;212182;1299;22481;-58
2022/12/25 02:16:14;;;;;;;4.40;2.60;;;21.60;58.00;;;;;;212005;1306;22492;-57
2022/12/25 02:21:46;;;;;;;4.80;3.20;;;21.80;57.30;;;;;;212100;1309;25313;-57
2022/12/25 02:27:25;;;;;;;5.30;3.10;;;22.00;56.80;;;;;;212278;1299;24444;-58
2022/12/25 02:32:44;;;;;;;4.40;2.90;;;22.20;56.50;;;;;;210474;1312;22717;-57
2022/12/25 02:38:07;;;;;;;4.60;2.90;;;22.30;56.10;;;;;;210655;1305;24493;-57
2022/12/25 03:26:56;;;;;;;4.20;2.60;;;22.80;55.30;;;;;;212019;1296;22497;-57
2022/12/25 03:32:11;;;;;;;5.60;3.10;;;22.90;54.80;;;;;;211935;1309;24423;-56
2022/12/25 04:36:48;;;;;;;4.10;2.60;;;23.10;54.30;;;;;;212085;1318;25380;-57
2022/12/25 04:41:52;;;;;;;3.00;2.30;;;23.00;54.50;;;;;;212209;1309;22502;-56
2022/12/25 04:46:56;;;;;;;3.60;2.30;;;22.90;54.70;;;;;;212153;1318;22482;-56
2022/12/25 04:52:00;;;;;;;3.60;2.50;;;22.80;54.80;;;;;;212241;1301;22488;-58
2022/12/25 04:57:04;;;;;;;3.70;2.50;;;22.70;55.00;;;;;;212156;1309;24219;-55
2022/12/25 05:02:08;;;;;;;3.40;2.20;;;22.60;55.20;;;;;;212032;1311;23897;-57
2022/12/25 05:07:12;;;;;;;3.50;2.20;;;22.50;55.40;;;;;;212220;1310;23868;-58
2022/12/25 05:12:16;;;;;;;4.50;2.60;;;22.50;55.60;;;;;;212083;1310;22522;-55
2022/12/25 05:17:20;;;;;;;3.80;2.20;;;22.40;55.60;;;;;;212103;1316;22537;-57
2022/12/25 05:22:24;;;;;;;3.40;2.20;;;22.30;55.80;;;;;;212062;1302;22579;-57
2022/12/25 05:27:28;;;;;;;3.40;2.30;;;22.30;55.90;;;;;;212043;1317;22588;-56
2022/12/25 05:32:34;;;;;;;3.20;2.30;;;22.20;56.10;;;;;;212042;1303;22526;-56
2022/12/25 05:37:38;;;;;;;3.90;2.60;;;22.10;56.10;;;;;;212051;1308;22696;-57
2022/12/25 05:42:42;;;;;;;3.70;2.30;;;22.10;56.10;;;;;;212103;1309;24039;-56
2022/12/25 05:47:46;;;;;;;4.50;2.70;;;22.00;56.20;;;;;;212082;1310;23190;-54
2022/12/25 05:52:51;;;;;;;3.30;2.20;;;21.90;56.30;;;;;;212222;1316;22664;-56
2022/12/25 05:57:56;;;;;;;2.90;2.10;;;21.90;56.30;;;;;;212117;1301;22510;-56
2022/12/25 06:03:00;;;;;;;2.80;2.10;;;21.90;56.50;;;;;;212043;1288;24256;-56
2022/12/25 06:08:04;;;;;;;3.30;2.20;;;21.80;56.50;;;;;;212083;1302;22842;-57
2022/12/25 06:13:08;;;;;;;3.40;2.20;;;21.70;56.60;;;;;;212057;1293;22550;-55
2022/12/25 06:18:12;;;;;;;3.30;2.20;;;21.70;56.50;;;;;;212116;1309;22476;-57
2022/12/25 06:23:16;;;;;;;4.50;2.80;;;21.70;56.60;;;;;;212036;1297;22498;-58
2022/12/25 06:28:20;;;;;;;4.10;2.80;;;21.70;56.60;;;;;;212217;1318;22501;-56
2022/12/25 06:33:25;;;;;;;4.10;2.50;;;21.60;56.60;;;;;;212093;1297;22493;-58
2022/12/25 06:38:30;;;;;;;3.50;2.40;;;21.50;57.00;;;;;;212036;1312;22572;-56
2022/12/25 06:43:34;;;;;;;3.50;2.60;;;21.50;56.70;;;;;;211965;1312;22651;-55
2022/12/25 06:48:39;;;;;;;3.00;2.10;;;21.50;56.70;;;;;;212152;1306;22505;-57
2022/12/25 06:53:43;;;;;;;3.80;2.40;;;21.60;56.60;;;;;;211979;1312;23871;-57
2022/12/25 06:58:52;;;;;;;3.50;2.30;;;21.80;56.10;;;;;;211879;1306;22515;-56
2022/12/25 07:04:02;;;;;;;3.90;2.40;;;22.00;56.00;;;;;;211956;1303;22496;-56
2022/12/25 07:09:05;;;;;;;3.20;2.20;;;22.20;55.10;;;;;;212024;1312;22644;-57
2022/12/25 07:14:18;;;;;;;3.20;2.20;;;22.30;54.80;;;;;;212076;1303;22526;-58
2022/12/25 07:19:27;;;;;;;4.20;2.40;;;22.40;54.50;;;;;;212089;1315;22483;-57
2022/12/25 07:24:31;;;;;;;3.10;2.10;;;22.50;54.30;;;;;;211992;1310;23896;-57
2022/12/25 07:29:34;;;;;;;3.00;2.00;;;22.60;54.10;;;;;;212025;1299;22559;-57
2022/12/25 07:34:39;;;;;;;3.40;2.20;;;22.70;54.10;;;;;;212005;1304;22562;-57
2022/12/25 07:39:43;;;;;;;3.40;2.20;;;22.70;53.90;;;;;;212119;1318;22494;-58
2022/12/25 07:44:47;;;;;;;4.30;2.50;;;22.70;53.80;;;;;;212101;1316;23105;-57
2022/12/25 07:49:51;;;;;;;3.60;2.10;;;22.90;53.60;;;;;;212022;1296;24231;-56
2022/12/25 07:54:55;;;;;;;3.80;2.60;;;22.90;53.60;;;;;;212104;1309;23871;-56
2022/12/25 07:59:59;;;;;;;3.10;2.20;;;22.90;53.50;;;;;;211948;1312;22718;-57
2022/12/25 08:05:03;;;;;;;4.10;2.60;;;23.00;53.50;;;;;;212005;1296;23184;-58
2022/12/25 08:10:08;;;;;;;3.90;2.70;;;23.00;53.40;;;;;;212125;1300;24327;-56
2022/12/25 08:15:12;;;;;;;4.10;2.70;;;23.10;53.30;;;;;;212204;1290;24251;-56
2022/12/25 08:20:16;;;;;;;3.60;2.30;;;23.10;53.20;;;;;;212158;1290;22523;-56
2022/12/25 08:25:20;;;;;;;3.30;2.50;;;23.20;53.40;;;;;;212250;1310;25528;-57
2022/12/25 08:30:24;;;;;;;3.10;2.30;;;23.30;52.90;;;;;;211988;1315;22599;-54
2022/12/25 08:35:32;;;;;;;3.50;2.50;;;23.40;52.80;;;;;;212115;1310;22531;-56
2022/12/25 08:40:35;;;;;;;3.50;2.70;;;23.40;53.10;;;;;;212087;1296;23202;-57
2022/12/25 08:45:40;;;;;;;3.50;2.50;;;23.40;52.70;;;;;;212015;1306;22523;-55
2022/12/25 08:50:45;;;;;;;3.90;2.70;;;23.30;52.90;;;;;;211988;1310;22542;-57
2022/12/25 08:55:56;;;;;;;3.70;2.70;;;23.30;53.10;;;;;;212022;1297;25558;-58
2022/12/25 09:01:01;;;;;;;3.50;2.60;;;23.20;53.20;;;;;;212138;1306;22627;-56
2022/12/25 09:06:11;;;;;;;3.10;2.20;;;23.10;53.30;;;;;;212034;1299;23082;-56
2022/12/25 09:11:16;;;;;;;4.60;2.80;;;23.20;53.20;;;;;;212070;1296;22478;-56
2022/12/25 09:16:21;;;;;;;3.90;2.80;;;23.30;52.90;;;;;;212037;1303;22511;-56
2022/12/25 09:21:25;;;;;;;4.90;2.70;;;23.30;53.50;;;;;;212101;1297;24330;-55
2022/12/25 09:26:30;;;;;;;3.10;2.40;;;23.30;53.10;;;;;;212031;1302;22636;-56
2022/12/25 09:31:34;;;;;;;3.70;2.60;;;23.30;53.10;;;;;;212070;1313;23993;-56
2022/12/25 09:36:38;;;;;;;3.80;2.30;;;23.20;53.10;;;;;;212058;1306;22546;-58
2022/12/25 09:42:25;;;;;;;3.70;2.60;;;23.20;53.20;;;;;;212168;1296;23201;-54
2022/12/25 09:47:32;;;;;;;4.10;2.60;;;23.20;53.30;;;;;;211797;1309;22488;-57
2022/12/25 09:52:49;;;;;;;3.60;2.50;;;23.10;53.40;;;;;;212069;1293;22853;-55
2022/12/25 09:57:56;;;;;;;4.20;2.80;;;23.10;53.50;;;;;;212106;1301;23071;-57
2022/12/25 10:03:42;;;;;;;3.50;2.30;;;23.10;54.00;;;;;;212014;1300;22953;-55
2022/12/25 10:09:37;;;;;;;3.60;2.50;;;23.10;53.70;;;;;;211248;1315;23022;-55
2022/12/25 10:15:00;;;;;;;3.40;2.50;;;23.10;53.80;;;;;;211306;1315;25166;-58
2022/12/25 10:20:13;;;;;;;3.50;2.50;;;23.00;53.80;;;;;;212044;1311;23716;-54
2022/12/25 10:25:23;;;;;;;3.90;2.50;;;23.00;54.00;;;;;;212009;1302;22532;-55
2022/12/25 10:30:27;;;;;;;4.30;2.70;;;22.90;54.00;;;;;;211875;1302;22530;-57
2022/12/25 10:35:31;;;;;;;3.60;2.50;;;23.00;54.00;;;;;;212107;1302;25653;-57
2022/12/25 10:41:13;;;;;;;4.10;2.50;;;23.00;54.10;;;;;;212057;1306;22649;-56
2022/12/25 10:46:18;;;;;;;4.60;2.70;;;23.00;54.10;;;;;;212005;1316;22552;-53
2022/12/25 10:51:29;;;;;;;4.10;2.70;;;23.00;54.10;;;;;;212062;1316;25637;-56
2022/12/25 10:56:33;;;;;;;3.90;2.50;;;22.90;54.10;;;;;;212041;1290;24250;-56
2022/12/25 11:01:37;;;;;;;4.10;2.80;;;22.90;54.10;;;;;;212100;1310;22558;-55
2022/12/25 11:06:41;;;;;;;3.40;2.20;;;22.90;54.60;;;;;;212146;1309;25206;-56
2022/12/25 11:11:46;;;;;;;4.20;2.50;;;22.90;54.30;;;;;;212025;1299;25615;-57
2022/12/25 11:16:50;;;;;;;4.20;2.70;;;22.90;54.20;;;;;;211967;1303;22496;-56
2022/12/25 11:21:58;;;;;;;5.10;3.10;;;22.90;54.30;;;;;;212053;1309;22494;-58
2022/12/25 11:27:05;;;;;;;4.30;2.90;;;22.90;54.40;;;;;;212153;1310;24487;-58
2022/12/25 11:32:19;;;;;;;4.00;2.60;;;22.90;54.30;;;;;;212058;1309;22496;-57
2022/12/25 11:37:32;;;;;;;4.60;3.00;;;22.90;54.30;;;;;;211976;1302;22480;-55
2022/12/25 11:42:40;;;;;;;3.30;2.30;;;22.90;54.70;;;;;;212125;1299;23071;-63
2022/12/25 11:47:53;;;;;;;4.20;2.40;;;22.90;54.50;;;;;;212036;1297;24256;-63
2022/12/25 11:53:01;;;;;;;3.80;2.60;;;22.90;54.40;;;;;;212033;1297;25718;-63
2022/12/25 11:58:13;;;;;;;3.90;2.70;;;22.90;54.30;;;;;;212166;1302;22695;-63
2022/12/25 12:03:48;;;;;;;4.60;2.70;;;23.00;54.80;;;;;;212015;1312;24325;-63
2022/12/25 12:09:00;;;;;;;4.40;2.80;;;22.90;54.30;;;;;;212102;1310;22473;-63
2022/12/25 12:14:11;;;;;;;4.20;2.50;;;22.90;55.00;;;;;;211874;1315;157167;-64
2022/12/25 12:19:26;;;;;;;;;;;22.90;54.40;;;;;;212000;1305;22920;-60
2022/12/25 12:24:43;;;;;;;4.00;2.80;;;22.90;54.40;;;;;;211931;1305;22799;-63
2022/12/25 12:29:57;;;;;;;3.90;2.70;;;22.90;54.50;;;;;;211929;1302;22535;-63
2022/12/25 12:35:20;;;;;;;3.50;2.40;;;22.90;54.50;;;;;;212005;1301;22508;-65
2022/12/25 12:40:29;;;;;;;3.80;2.60;;;22.90;54.40;;;;;;212157;1312;22551;-64
2022/12/25 12:45:36;;;;;;;4.50;2.60;;;22.90;54.50;;;;;;212015;1310;24214;-63
2022/12/25 12:50:42;;;;;;;3.60;2.40;;;22.90;54.50;;;;;;212088;1314;26467;-63
2022/12/25 12:55:47;;;;;;;3.80;2.70;;;22.90;54.50;;;;;;212063;1310;26832;-63
2022/12/25 13:00:59;;;;;;;3.80;2.50;;;22.80;54.50;;;;;;212121;1302;22470;-62
2022/12/25 13:06:16;;;;;;;3.70;2.80;;;22.80;54.50;;;;;;212094;1300;22473;-63
2022/12/25 13:11:24;;;;;;;3.80;2.70;;;22.80;54.20;;;;;;211938;1312;22546;-63
2022/12/25 13:16:40;;;;;;;4.20;2.70;;;22.70;54.60;;;;;;212146;1303;25625;-62
2022/12/25 13:21:56;;;;;;;4.20;2.60;;;22.70;54.70;;;;;;212053;1314;25501;-60
2022/12/25 13:27:01;;;;;;;3.80;2.60;;;22.70;54.70;;;;;;212029;1297;22518;-63
2022/12/25 13:32:07;;;;;;;3.80;2.70;;;22.60;54.70;;;;;;212064;1299;24398;-63
2022/12/25 13:37:20;;;;;;;3.30;2.40;;;22.50;54.60;;;;;;211949;1305;22725;-63
2022/12/25 13:42:29;;;;;;;4.20;2.70;;;22.50;54.60;;;;;;212150;1302;22491;-64
2022/12/25 13:47:42;;;;;;;4.00;2.70;;;22.50;55.10;;;;;;212123;1313;24260;-64
2022/12/25 13:52:46;;;;;;;4.50;3.00;;;22.40;54.70;;;;;;211911;1302;22499;-63
2022/12/25 13:57:58;;;;;;;3.20;2.30;;;22.30;55.30;;;;;;211941;1315;22964;-62
2022/12/25 14:03:06;;;;;;;4.60;2.70;;;22.30;55.00;;;;;;212028;1301;25261;-65
2022/12/25 14:08:22;;;;;;;3.90;2.70;;;22.20;55.20;;;;;;211989;1308;22480;-64
2022/12/25 14:13:27;;;;;;;4.30;3.00;;;22.10;55.20;;;;;;212083;1315;25300;-63
2022/12/25 14:18:32;;;;;;;3.70;2.60;;;22.10;55.20;;;;;;212244;1303;22509;-66
2022/12/25 14:23:45;;;;;;;3.90;2.70;;;22.00;55.30;;;;;;212112;1300;24373;-62
2022/12/25 14:29:07;;;;;;;4.50;2.90;;;22.00;55.30;;;;;;211975;1310;22662;-63
2022/12/25 14:34:21;;;;;;;4.00;2.50;;;22.00;55.30;;;;;;212128;1309;22516;-63
2022/12/25 14:39:28;;;;;;;4.40;2.80;;;21.90;55.40;;;;;;212052;1302;22544;-63
2022/12/25 14:44:37;;;;;;;3.70;2.60;;;21.90;55.60;;;;;;212148;1312;22486;-62
2022/12/25 14:49:41;;;;;;;3.70;2.70;;;21.90;55.50;;;;;;212185;1303;23028;-63
2022/12/25 14:54:48;;;;;;;4.90;3.00;;;21.90;55.80;;;;;;212022;1314;24376;-63
2022/12/25 14:59:58;;;;;;;4.00;2.70;;;21.80;55.40;;;;;;212047;1301;24293;-64
2022/12/25 15:05:02;;;;;;;4.10;2.70;;;21.80;55.50;;;;;;212194;1298;24281;-65
2022/12/25 15:10:12;;;;;;;5.40;2.80;;;21.80;55.40;;;;;;211938;1310;22538;-63
2022/12/25 15:15:36;;;;;;;4.90;2.60;;;21.70;55.40;;;;;;211891;1317;22490;-63
2022/12/25 15:20:40;;;;;;;4.70;3.20;;;21.70;55.40;;;;;;212086;1302;24770;-63
2022/12/25 15:25:46;;;;;;;4.30;2.70;;;21.60;55.50;;;;;;212124;1309;22498;-65
2022/12/25 15:30:50;;;;;;;4.50;2.60;;;21.60;55.50;;;;;;212204;1310;22683;-64
2022/12/25 15:35:54;;;;;;;4.20;2.70;;;21.60;55.60;;;;;;212024;1317;22687;-62
2022/12/25 15:40:58;;;;;;;3.70;2.70;;;21.60;55.70;;;;;;212219;1306;22487;-65
2022/12/25 15:46:02;;;;;;;4.60;3.10;;;21.50;55.70;;;;;;212305;1310;25289;-63
2022/12/25 15:51:06;;;;;;;4.30;2.80;;;21.50;55.70;;;;;;212212;1309;23929;-64
2022/12/25 15:56:11;;;;;;;3.80;3.10;;;21.50;55.80;;;;;;212049;1317;24268;-63
2022/12/25 16:01:18;;;;;;;4.30;3.20;;;21.50;55.70;;;;;;212031;1303;23243;-63
2022/12/25 16:06:22;;;;;;;4.60;2.70;;;21.40;55.70;;;;;;212157;1303;25435;-63
2022/12/25 16:11:26;;;;;;;4.20;2.80;;;21.40;56.40;;;;;;212075;1296;22494;-63
2022/12/25 16:16:30;;;;;;;4.30;2.80;;;21.40;55.80;;;;;;212236;1317;22482;-64
2022/12/25 16:21:41;;;;;;;3.90;2.90;;;21.60;55.50;;;;;;212121;1302;23685;-62
2022/12/25 16:26:45;;;;;;;3.70;2.70;;;21.80;54.90;;;;;;212018;1303;22498;-62
2022/12/25 16:31:49;;;;;;;3.60;2.60;;;22.00;54.90;;;;;;212088;1310;23856;-64
2022/12/25 16:36:55;;;;;;;3.90;2.60;;;22.20;54.10;;;;;;212111;1298;22496;-64
2022/12/25 16:41:59;;;;;;;4.00;2.60;;;22.30;54.10;;;;;;212089;1299;22648;-63
2022/12/25 16:47:05;;;;;;;4.40;2.80;;;22.40;53.50;;;;;;212202;1312;22518;-63
2022/12/25 16:52:09;;;;;;;4.00;2.80;;;22.50;53.70;;;;;;212185;1305;22475;-62
2022/12/25 16:57:13;;;;;;;4.70;2.90;;;22.60;53.10;;;;;;212275;1310;22553;-64
2022/12/25 17:02:20;;;;;;;4.00;2.70;;;22.70;53.00;;;;;;212224;1299;24474;-62
2022/12/25 17:07:24;;;;;;;4.50;2.90;;;22.70;52.80;;;;;;212224;1299;22659;-63
2022/12/25 17:12:28;;;;;;;4.60;3.20;;;22.80;52.70;;;;;;212056;1317;22526;-64
2022/12/25 17:17:32;;;;;;;4.30;2.90;;;22.80;52.80;;;;;;212162;1303;24251;-64
2022/12/25 17:22:36;;;;;;;4.70;3.20;;;22.90;52.70;;;;;;212019;1311;22578;-63
2022/12/25 17:27:40;;;;;;;4.10;2.90;;;22.90;52.60;;;;;;212163;1315;24270;-64
2022/12/25 17:32:44;;;;;;;5.60;3.00;;;22.90;52.50;;;;;;212138;1303;24549;-63
2022/12/25 17:37:48;;;;;;;4.40;2.80;;;23.00;52.50;;;;;;212187;1309;22494;-63
2022/12/25 17:42:52;;;;;;;4.40;2.60;;;23.00;52.40;;;;;;211894;1315;22538;-61
2022/12/25 17:47:56;;;;;;;4.70;3.10;;;23.00;52.30;;;;;;212145;1310;22813;-62
2022/12/25 17:53:01;;;;;;;5.40;3.50;;;23.10;52.40;;;;;;211951;1303;24396;-64
2022/12/25 17:58:06;;;;;;;6.10;3.60;;;23.10;52.90;;;;;;212078;1309;23210;-63
2022/12/25 18:03:10;;;;;;;4.80;3.10;;;23.10;52.20;;;;;;212224;1299;22587;-63
2022/12/25 18:08:15;;;;;;;4.40;2.90;;;23.20;52.20;;;;;;212196;1306;22619;-63
2022/12/25 18:13:19;;;;;;;5.30;3.40;;;23.20;52.10;;;;;;212117;1297;22845;-63
2022/12/25 18:18:23;;;;;;;4.60;2.90;;;23.20;52.20;;;;;;212062;1308;22501;-63
2022/12/25 18:23:27;;;;;;;4.40;3.10;;;23.10;52.30;;;;;;212105;1296;22729;-62
2022/12/25 18:28:32;;;;;;;6.50;3.90;;;23.00;52.40;;;;;;212322;1315;22608;-64
2022/12/25 18:33:36;;;;;;;4.30;3.40;;;23.00;52.60;;;;;;212194;1303;22555;-62
2022/12/25 18:38:41;;;;;;;5.30;3.60;;;22.90;52.80;;;;;;212164;1314;25505;-64
2022/12/25 18:43:45;;;;;;;5.20;3.50;;;22.80;53.00;;;;;;212198;1307;24447;-63
2022/12/25 18:48:57;;;;;;;6.30;3.90;;;22.70;53.10;;;;;;211943;1312;22554;-63
2022/12/25 18:54:02;;;;;;;5.60;3.90;;;22.70;53.30;;;;;;212125;1296;22588;-64
2022/12/25 18:59:06;;;;;;;5.90;4.10;;;22.60;53.40;;;;;;212063;1310;25682;-64
2022/12/25 19:04:13;;;;;;;5.70;3.60;;;22.50;54.10;;;;;;212021;1303;22516;-62
2022/12/25 19:09:17;;;;;;;5.50;3.30;;;22.40;53.60;;;;;;211975;1311;22664;-64
2022/12/25 19:14:22;;;;;;;5.30;3.80;;;22.40;54.10;;;;;;212272;1302;22481;-64
2022/12/25 19:19:26;;;;;;;5.80;3.60;;;22.30;53.80;;;;;;212220;1310;22490;-60
2022/12/25 19:24:31;;;;;;;4.80;3.60;;;22.30;54.00;;;;;;212109;1306;25767;-64
2022/12/25 19:29:36;;;;;;;6.60;4.00;;;22.20;54.10;;;;;;211948;1315;23294;-63
2022/12/25 19:34:40;;;;;;;7.30;4.20;;;22.10;54.00;;;;;;212172;1303;24295;-60
2022/12/25 19:39:47;;;;;;;11.20;4.50;;;22.20;54.10;;;;;;212001;1310;22619;-64
2022/12/25 19:44:52;;;;;;;10.50;4.10;;;22.30;53.90;;;;;;212121;1311;22646;-63
2022/12/25 19:49:58;;;;;;;10.70;4.80;;;22.40;54.80;;;;;;212055;1297;22542;-63
2022/12/25 19:55:06;;;;;;;13.50;4.80;;;22.30;54.60;;;;;;212087;1302;23296;-58
2022/12/25 20:00:10;;;;;;;11.00;4.10;;;22.20;55.10;;;;;;212024;1300;26596;-59
2022/12/25 20:05:15;;;;;;;14.40;4.70;;;22.20;54.80;;;;;;212113;1301;25682;-60
2022/12/25 20:10:20;;;;;;;20.70;5.00;;;22.10;55.10;;;;;;212015;1296;22482;-59
2022/12/25 20:15:24;;;;;;;14.70;5.90;;;22.10;55.00;;;;;;211948;1302;22499;-60
2022/12/25 20:20:29;;;;;;;13.50;5.20;;;21.90;54.20;;;;;;211966;1304;22890;-61
2022/12/25 20:25:33;;;;;;;14.60;6.00;;;21.90;55.00;;;;;;214658;1309;22522;-63
2022/12/25 20:30:38;;;;;;;10.00;5.90;;;21.90;54.50;;;;;;211879;1290;24261;-61
2022/12/25 20:35:47;;;;;;;11.10;5.50;;;21.80;54.40;;;;;;212158;1301;22687;-60
2022/12/25 20:41:01;;;;;;;11.90;5.90;;;21.80;54.50;;;;;;211731;1306;25385;-61
2022/12/25 20:46:26;;;;;;;10.30;5.20;;;21.80;54.60;;;;;;211926;1305;24283;-61
2022/12/25 20:51:31;;;;;;;10.60;5.30;;;21.80;54.60;;;;;;211980;1300;24463;-62
2022/12/25 20:56:37;;;;;;;10.10;5.20;;;21.70;54.60;;;;;;212042;1302;23893;-57
2022/12/25 21:01:41;;;;;;;9.80;5.30;;;21.70;54.70;;;;;;212095;1296;22639;-62
2022/12/25 21:06:46;;;;;;;9.00;5.50;;;21.60;54.70;;;;;;212005;1317;22676;-61
2022/12/25 21:11:50;;;;;;;8.20;5.40;;;21.60;54.80;;;;;;212189;1306;24425;-60
2022/12/25 21:16:54;;;;;;;9.50;5.40;;;21.50;54.80;;;;;;212129;1308;22702;-60
2022/12/25 21:21:58;;;;;;;6.70;5.00;;;21.60;54.70;;;;;;212033;1315;26346;-61
2022/12/25 21:27:02;;;;;;;8.50;4.90;;;21.70;54.60;;;;;;212123;1293;24244;-63
2022/12/25 21:37:31;;;;;;;7.50;4.90;;;22.20;53.70;;;;;;211971;1313;22857;-62
2022/12/25 21:42:34;;;;;;;7.90;4.90;;;22.30;53.30;;;;;;212003;1317;24408;-62
2022/12/25 21:47:38;;;;;;;7.60;4.80;;;22.40;53.00;;;;;;211935;1317;22500;-60
2022/12/25 21:53:04;;;;;;;6.50;3.90;;;22.50;52.80;;;;;;212060;1307;23763;-64
2022/12/25 21:58:09;;;;;;;9.60;4.50;;;22.60;52.60;;;;;;211955;1296;24532;-62
2022/12/25 22:03:13;;;;;;;7.80;4.30;;;22.70;52.50;;;;;;212115;1315;24293;-61
2022/12/25 22:08:17;;;;;;;7.70;4.70;;;22.70;52.30;;;;;;212064;1300;22483;-61
2022/12/25 22:24:07;;;;;;;8.90;4.90;;;22.90;52.70;;;;;;211972;1313;22610;-61
2022/12/25 22:29:10;;;;;;;6.20;4.70;;;22.90;52.20;;;;;;211915;1309;25285;-62
2022/12/25 22:34:15;;;;;;;6.90;4.20;;;22.90;52.20;;;;;;212009;1310;22599;-62
2022/12/25 22:39:19;;;;;;;7.90;4.90;;;23.00;52.20;;;;;;211965;1296;22484;-61
2022/12/25 22:44:25;;;;;;;8.00;4.70;;;23.00;52.50;;;;;;211999;1294;22488;-61
2022/12/25 22:49:28;;;;;;;10.40;5.00;;;23.00;52.00;;;;;;212007;1318;22494;-60
2022/12/25 22:54:32;;;;;;;7.40;4.30;;;23.00;51.90;;;;;;212088;1312;22547;-62
2022/12/25 22:59:37;;;;;;;6.60;4.50;;;23.10;51.90;;;;;;212035;1310;22490;-60
2022/12/25 23:04:41;;;;;;;6.50;3.90;;;23.10;51.70;;;;;;211918;1297;22640;-61
2022/12/25 23:09:45;;;;;;;6.00;4.10;;;23.20;52.20;;;;;;212110;1309;22566;-60
2022/12/25 23:14:49;;;;;;;7.40;4.30;;;23.20;51.70;;;;;;212150;1303;24257;-60
2022/12/25 23:30:38;;;;;;;7.70;4.50;;;23.10;51.90;;;;;;211965;1309;22677;-60
2022/12/25 23:35:43;;;;;;;7.70;5.00;;;23.10;52.10;;;;;;212077;1297;24261;-60
2022/12/25 23:40:47;;;;;;;8.30;4.60;;;22.90;52.30;;;;;;212149;1306;22538;-61
2022/12/25 23:45:51;;;;;;;7.30;4.30;;;22.90;52.50;;;;;;212094;1308;22532;-61
2022/12/25 23:50:55;;;;;;;5.80;4.50;;;22.80;52.70;;;;;;212125;1306;22620;-60
2022/12/25 23:55:59;;;;;;;6.70;4.60;;;22.70;52.80;;;;;;211949;1303;22498;-60
